Time,TemperatureF,DewpointF,PressureIn,WindDirection,WindDirectionDegrees,WindSpeedMPH,WindSpeedGustMPH,Humidity,HourlyPrecipIn,Conditions,Clouds,dailyrainin,SoftwareType,DateUTC
2013-02-05 00:01:00,28.9,16.4,29.94,NNE,29,0.0,0.0,59,0.00,,,0.00,WeatherDisplay:10.36,2013-02-05 06:01:00,
2013-02-05 00:06:00,28.9,16.4,29.94,NNE,32,3.6,0.0,59,0.00,,,0.00,WeatherDisplay:10.36,2013-02-05 06:06:00,
2013-02-05 00:11:00,28.9,16.4,29.94,NNE,30,4.0,4.0,59,0.00,,,0.00,WeatherDisplay:10.36,2013-02-05 06:11:00,
2013-02-05 00:16:00,28.8,16.2,29.94,NNE,28,0.0,0.0,59,0.00,,,0.00,WeatherDisplay:10.36,2013-02-05 06:16:00,
2013-02-05 00:21:00,28.6,16.1,29.94,NE,44,4.5,0.0,59,0.00,,,0.00,WeatherDisplay:10.36,2013-02-05 06:21:00,
2013-02-05 00:26:00,28.6,16.1,29.94,NE,37,4.6,4.6,59,0.00,,,0.00,WeatherDisplay:10.36,2013-02-05 06:26:00,
2013-02-05 00:31:00,28.6,16.1,29.94,NE,41,3.5,3.5,59,0.00,,,0.00,WeatherDisplay:10.36,2013-02-05 06:31:00,
2013-02-05 00:36:00,28.4,15.9,29.94,NE,46,0.0,0.0,59,0.00,,,0.00,WeatherDisplay:10.36,2013-02-05 06:36:00,
2013-02-05 00:41:00,28.6,16.1,29.94,NE,45,0.0,0.0,59,0.00,,,0.00,WeatherDisplay:10.36,2013-02-05 06:41:00,
2013-02-05 00:46:00,28.6,16.1,29.94,NE,45,0.0,0.0,59,0.00,,,0.00,WeatherDisplay:10.36,2013-02-05 06:46:00,
2013-02-05 00:51:00,28.6,16.4,29.94,NE,46,0.0,0.0,60,0.00,,,0.00,WeatherDisplay:10.36,2013-02-05 06:51:00,
2013-02-05 00:56:00,28.6,16.4,29.94,NE,43,4.6,4.6,60,0.00,,,0.00,WeatherDisplay:10.36,2013-02-05 06:56:00,
2013-02-05 01:01:00,28.6,16.4,29.94,NE,43,0.0,0.0,60,0.00,,,0.00,WeatherDisplay:10.36,2013-02-05 07:01:00,
2013-02-05 01:06:00,28.4,16.3,29.94,NE,44,0.0,0.0,60,0.00,,,0.00,WeatherDisplay:10.36,2013-02-05 07:06:00,
2013-02-05 01:11:00,28.4,16.3,29.94,NE,42,0.0,0.0,60,0.00,,,0.00,WeatherDisplay:10.36,2013-02-05 07:11:00,
2013-02-05 01:16:00,28.4,16.3,29.94,NE,45,0.0,0.0,60,0.00,,,0.00,WeatherDisplay:10.36,2013-02-05 07:16:00,
2013-02-05 01:21:00,28.4,16.3,29.94,WSW,250,5.8,5.8,60,0.00,,,0.00,WeatherDisplay:10.36,2013-02-05 07:21:00,
2013-02-05 01:26:00,28.4,16.3,29.94,NE,44,4.0,4.0,60,0.00,,,0.00,WeatherDisplay:10.36,2013-02-05 07:26:00,
2013-02-05 01:31:00,28.4,16.3,29.94,NE,45,4.6,0.0,60,0.00,,,0.00,WeatherDisplay:10.36,2013-02-05 07:31:00,
2013-02-05 01:36:00,28.4,16.7,29.94,NE,45,0.0,0.0,61,0.00,,,0.00,WeatherDisplay:10.36,2013-02-05 07:36:00,
2013-02-05 01:41:00,28.4,16.7,29.94,NE,44,0.0,0.0,61,0.00,,,0.00,WeatherDisplay:10.36,2013-02-05 07:41:00,
2013-02-05 01:46:00,28.4,16.7,29.94,NE,45,0.0,0.0,61,0.00,,,0.00,WeatherDisplay:10.36,2013-02-05 07:46:00,
2013-02-05 01:51:00,28.4,16.7,29.94,NE,45,0.0,0.0,61,0.00,,,0.00,WeatherDisplay:10.36,2013-02-05 07:51:00,
2013-02-05 01:56:00,28.4,16.7,29.94,NE,45,0.0,0.0,61,0.00,,,0.00,WeatherDisplay:10.36,2013-02-05 07:56:00,
2013-02-05 02:01:00,28.4,16.7,29.94,NE,43,5.4,5.4,61,0.00,,,0.00,WeatherDisplay:10.36,2013-02-05 08:01:00,
2013-02-05 02:06:00,28.4,16.7,29.94,NE,44,4.6,4.6,61,0.00,,,0.00,WeatherDisplay:10.36,2013-02-05 08:06:00,
2013-02-05 02:11:00,28.4,16.7,29.94,NE,46,4.6,4.6,61,0.00,,,0.00,WeatherDisplay:10.36,2013-02-05 08:11:00,
2013-02-05 02:16:00,28.2,16.5,29.94,NE,46,4.6,4.6,61,0.00,,,0.00,WeatherDisplay:10.36,2013-02-05 08:16:00,
2013-02-05 02:21:00,28.2,16.9,29.94,NE,45,4.0,4.0,62,0.00,,,0.00,WeatherDisplay:10.36,2013-02-05 08:21:00,
2013-02-05 02:26:00,28.2,16.9,29.94,NE,44,3.6,3.6,62,0.00,,,0.00,WeatherDisplay:10.36,2013-02-05 08:26:00,
2013-02-05 02:31:00,28.2,16.9,29.94,NE,45,2.7,0.0,62,0.00,,,0.00,WeatherDisplay:10.36,2013-02-05 08:31:00,
2013-02-05 02:36:00,28.2,16.9,29.94,NE,45,5.8,5.8,62,0.00,,,0.00,WeatherDisplay:10.36,2013-02-05 08:36:00,
2013-02-05 02:41:00,28.2,16.9,29.94,NE,42,3.6,3.6,62,0.00,,,0.00,WeatherDisplay:10.36,2013-02-05 08:41:00,
2013-02-05 02:46:00,28.0,16.7,29.94,NE,42,3.6,3.6,62,0.00,,,0.00,WeatherDisplay:10.36,2013-02-05 08:46:00,
2013-02-05 02:51:00,28.0,16.7,29.94,NE,43,0.0,0.0,62,0.00,,,0.00,WeatherDisplay:10.36,2013-02-05 08:51:00,
2013-02-05 02:56:00,28.0,16.7,29.94,NE,34,3.1,0.0,62,0.00,,,0.00,WeatherDisplay:10.36,2013-02-05 08:56:00,
2013-02-05 03:01:00,28.0,16.7,29.94,NE,35,0.0,0.0,62,0.00,,,0.00,WeatherDisplay:10.36,2013-02-05 09:01:00,
2013-02-05 03:06:00,28.0,16.7,29.94,NE,35,0.0,0.0,62,0.00,,,0.00,WeatherDisplay:10.36,2013-02-05 09:06:00,
2013-02-05 03:11:00,28.0,17.1,29.94,NE,44,0.0,0.0,63,0.00,,,0.00,WeatherDisplay:10.36,2013-02-05 09:11:00,
2013-02-05 03:16:00,28.0,17.1,29.91,NE,56,4.0,4.0,63,0.00,,,0.00,WeatherDisplay:10.36,2013-02-05 09:16:00,
2013-02-05 03:21:00,28.0,17.1,29.91,NE,37,4.9,0.0,63,0.00,,,0.00,WeatherDisplay:10.36,2013-02-05 09:21:00,
2013-02-05 03:26:00,27.9,16.5,29.91,NE,42,0.0,0.0,62,0.00,,,0.00,WeatherDisplay:10.36,2013-02-05 09:26:00,
2013-02-05 03:31:00,27.7,16.7,29.91,NE,38,4.6,4.6,63,0.00,,,0.00,WeatherDisplay:10.36,2013-02-05 09:31:00,
2013-02-05 03:36:00,27.9,16.9,29.91,NE,46,4.9,4.9,63,0.00,,,0.00,WeatherDisplay:10.36,2013-02-05 09:36:00,
2013-02-05 03:41:00,27.9,16.9,29.91,NE,45,6.7,6.7,63,0.00,,,0.00,WeatherDisplay:10.36,2013-02-05 09:41:00,
2013-02-05 03:46:00,27.9,16.9,29.91,NE,46,4.9,4.9,63,0.00,,,0.00,WeatherDisplay:10.36,2013-02-05 09:46:00,
2013-02-05 03:51:00,27.9,16.9,29.91,West,264,6.9,6.9,63,0.00,,,0.00,WeatherDisplay:10.36,2013-02-05 09:51:00,
2013-02-05 03:56:00,27.7,16.7,29.91,NE,45,6.9,6.9,63,0.00,,,0.00,WeatherDisplay:10.36,2013-02-05 09:56:00,
2013-02-05 04:01:00,27.7,16.7,29.91,NE,44,6.3,6.3,63,0.00,,,0.00,WeatherDisplay:10.36,2013-02-05 10:01:00,
2013-02-05 04:06:00,27.7,16.7,29.91,NE,40,7.4,7.4,63,0.00,,,0.00,WeatherDisplay:10.36,2013-02-05 10:06:00,
2013-02-05 04:11:00,27.7,17.1,29.91,NE,42,9.2,9.2,64,0.00,,,0.00,WeatherDisplay:10.36,2013-02-05 10:11:00,
2013-02-05 04:16:00,27.9,17.3,29.91,NE,43,7.4,7.4,64,0.00,,,0.00,WeatherDisplay:10.36,2013-02-05 10:16:00,
2013-02-05 04:21:00,27.7,17.1,29.91,NE,45,6.7,6.7,64,0.00,,,0.00,WeatherDisplay:10.36,2013-02-05 10:21:00,
2013-02-05 04:26:00,27.5,16.9,29.91,NE,45,6.9,6.9,64,0.00,,,0.00,WeatherDisplay:10.36,2013-02-05 10:26:00,
2013-02-05 04:31:00,27.5,17.3,29.91,NE,51,5.8,5.8,65,0.00,,,0.00,WeatherDisplay:10.36,2013-02-05 10:31:00,
2013-02-05 04:36:00,27.5,17.6,29.91,ESE,118,5.8,5.8,66,0.00,,,0.00,WeatherDisplay:10.36,2013-02-05 10:36:00,
2013-02-05 04:41:00,27.3,17.5,29.91,NE,46,6.9,6.9,66,0.00,,,0.00,WeatherDisplay:10.36,2013-02-05 10:41:00,
2013-02-05 04:46:00,27.3,17.5,29.91,NE,38,6.9,6.9,66,0.00,,,0.00,WeatherDisplay:10.36,2013-02-05 10:46:00,
2013-02-05 04:51:00,27.3,17.8,29.91,NE,45,6.9,6.9,67,0.00,,,0.00,WeatherDisplay:10.36,2013-02-05 10:51:00,
2013-02-05 04:56:00,27.3,17.8,29.91,NE,45,6.3,6.3,67,0.00,,,0.00,WeatherDisplay:10.36,2013-02-05 10:56:00,
2013-02-05 05:01:00,27.1,17.6,29.91,NE,46,6.9,6.9,67,0.00,,,0.00,WeatherDisplay:10.36,2013-02-05 11:01:00,
2013-02-05 05:06:00,27.3,17.8,29.91,NE,37,4.6,4.6,67,0.00,,,0.00,WeatherDisplay:10.36,2013-02-05 11:06:00,
2013-02-05 05:11:00,27.3,18.1,29.91,NE,45,0.0,0.0,68,0.00,,,0.00,WeatherDisplay:10.36,2013-02-05 11:11:00,
2013-02-05 05:16:00,27.3,18.1,29.91,NE,43,4.6,0.0,68,0.00,,,0.00,WeatherDisplay:10.36,2013-02-05 11:16:00,
2013-02-05 05:21:00,27.3,18.1,29.91,NE,47,4.9,4.9,68,0.00,,,0.00,WeatherDisplay:10.36,2013-02-05 11:21:00,
2013-02-05 05:26:00,27.7,18.5,29.91,East,101,6.3,6.3,68,0.00,,,0.00,WeatherDisplay:10.36,2013-02-05 11:26:00,
2013-02-05 05:31:00,28.2,19.3,29.91,NE,42,5.8,5.8,69,0.00,,,0.00,WeatherDisplay:10.36,2013-02-05 11:31:00,
2013-02-05 05:36:00,28.4,19.5,29.91,NE,45,6.3,6.3,69,0.00,,,0.00,WeatherDisplay:10.36,2013-02-05 11:36:00,
2013-02-05 05:41:00,28.6,19.7,29.91,NE,45,5.4,5.4,69,0.00,,,0.00,WeatherDisplay:10.36,2013-02-05 11:41:00,
2013-02-05 05:46:00,28.8,19.9,29.91,ENE,58,5.8,5.8,69,0.00,,,0.00,WeatherDisplay:10.36,2013-02-05 11:46:00,
2013-02-05 05:51:00,28.9,20.0,29.88,NE,53,5.8,5.8,69,0.00,,,0.00,WeatherDisplay:10.36,2013-02-05 11:51:00,
2013-02-05 05:56:00,28.9,20.0,29.88,NE,43,5.8,5.8,69,0.00,,,0.00,WeatherDisplay:10.36,2013-02-05 11:56:00,
2013-02-05 06:01:00,28.9,20.4,29.88,NE,45,5.8,5.8,70,0.00,,,0.00,WeatherDisplay:10.36,2013-02-05 12:01:00,
2013-02-05 06:06:00,28.8,20.2,29.88,NE,46,6.3,6.3,70,0.00,,,0.00,WeatherDisplay:10.36,2013-02-05 12:06:00,
2013-02-05 06:11:00,28.8,20.2,29.88,NE,43,4.9,4.9,70,0.00,,,0.00,WeatherDisplay:10.36,2013-02-05 12:11:00,
2013-02-05 06:16:00,28.8,20.2,29.91,NE,44,0.0,0.0,70,0.00,,,0.00,WeatherDisplay:10.36,2013-02-05 12:16:00,
2013-02-05 06:21:00,28.8,20.2,29.91,NE,49,5.8,0.0,70,0.00,,,0.00,WeatherDisplay:10.36,2013-02-05 12:21:00,
2013-02-05 06:26:00,28.6,20.0,29.91,NE,46,0.0,0.0,70,0.00,,,0.00,WeatherDisplay:10.36,2013-02-05 12:26:00,
2013-02-05 06:31:00,28.4,19.9,29.91,NE,46,4.0,0.0,70,0.00,,,0.00,WeatherDisplay:10.36,2013-02-05 12:31:00,
2013-02-05 06:36:00,28.4,20.2,29.91,NE,45,5.8,5.8,71,0.00,,,0.00,WeatherDisplay:10.36,2013-02-05 12:36:00,
2013-02-05 06:41:00,28.2,20.0,29.91,NE,46,0.0,0.0,71,0.00,,,0.00,WeatherDisplay:10.36,2013-02-05 12:41:00,
2013-02-05 06:46:00,28.2,20.0,29.91,NE,45,0.0,0.0,71,0.00,,,0.00,WeatherDisplay:10.36,2013-02-05 12:46:00,
2013-02-05 06:51:00,28.2,20.0,29.91,NE,39,4.5,0.0,71,0.00,,,0.00,WeatherDisplay:10.36,2013-02-05 12:51:00,
2013-02-05 06:56:00,28.2,20.0,29.91,NE,41,4.6,4.6,71,0.00,,,0.00,WeatherDisplay:10.36,2013-02-05 12:56:00,
2013-02-05 07:01:00,28.0,19.8,29.91,NE,44,5.8,5.8,71,0.00,,,0.00,WeatherDisplay:10.36,2013-02-05 13:01:00,
2013-02-05 07:06:00,28.0,19.8,29.91,NE,42,3.5,3.5,71,0.00,,,0.00,WeatherDisplay:10.36,2013-02-05 13:06:00,
2013-02-05 07:11:00,28.0,19.8,29.91,NE,43,6.3,6.3,71,0.00,,,0.00,WeatherDisplay:10.36,2013-02-05 13:11:00,
2013-02-05 07:16:00,28.0,19.8,29.91,NE,43,6.9,6.9,71,0.00,,,0.00,WeatherDisplay:10.36,2013-02-05 13:16:00,
2013-02-05 07:21:00,28.0,19.8,29.91,NE,39,6.9,6.9,71,0.00,,,0.00,WeatherDisplay:10.36,2013-02-05 13:21:00,
2013-02-05 07:26:00,28.0,19.8,29.91,ENE,73,3.6,3.6,71,0.00,,,0.00,WeatherDisplay:10.36,2013-02-05 13:26:00,
2013-02-05 07:31:00,28.0,19.8,29.91,NE,46,4.9,4.9,71,0.00,,,0.00,WeatherDisplay:10.36,2013-02-05 13:31:00,
2013-02-05 07:36:00,28.0,20.2,29.91,NE,43,5.8,5.8,72,0.00,,,0.00,WeatherDisplay:10.36,2013-02-05 13:36:00,
2013-02-05 07:41:00,28.0,20.2,29.91,NE,43,6.9,6.9,72,0.00,,,0.00,WeatherDisplay:10.36,2013-02-05 13:41:00,
2013-02-05 07:46:00,28.2,20.3,29.91,NE,38,4.6,4.6,72,0.00,,,0.00,WeatherDisplay:10.36,2013-02-05 13:46:00,
2013-02-05 07:51:00,28.2,20.3,29.88,NE,40,6.3,6.3,72,0.00,,,0.00,WeatherDisplay:10.36,2013-02-05 13:51:00,
2013-02-05 07:56:00,28.4,20.5,29.88,NE,46,4.0,4.0,72,0.00,,,0.00,WeatherDisplay:10.36,2013-02-05 13:56:00,
2013-02-05 08:01:00,28.4,20.8,29.88,NE,44,6.9,6.9,73,0.00,,,0.00,WeatherDisplay:10.36,2013-02-05 14:01:00,
2013-02-05 08:06:00,28.6,21.0,29.88,SW,236,5.4,5.4,73,0.00,,,0.00,WeatherDisplay:10.36,2013-02-05 14:06:00,
2013-02-05 08:11:00,28.8,21.2,29.88,NE,45,6.9,6.9,73,0.00,,,0.00,WeatherDisplay:10.36,2013-02-05 14:11:00,
2013-02-05 08:16:00,28.9,21.4,29.88,NE,49,6.9,6.9,73,0.00,,,0.00,WeatherDisplay:10.36,2013-02-05 14:16:00,
2013-02-05 08:21:00,29.1,21.9,29.88,NE,45,7.4,7.4,74,0.00,,,0.00,WeatherDisplay:10.36,2013-02-05 14:21:00,
2013-02-05 08:26:00,29.3,21.7,29.88,NE,52,6.3,6.3,73,0.00,,,0.00,WeatherDisplay:10.36,2013-02-05 14:26:00,
2013-02-05 08:31:00,29.7,22.1,29.88,NE,45,8.1,8.1,73,0.00,,,0.00,WeatherDisplay:10.36,2013-02-05 14:31:00,
2013-02-05 08:36:00,29.7,22.4,29.91,NE,46,6.9,6.9,74,0.00,,,0.00,WeatherDisplay:10.36,2013-02-05 14:36:00,
2013-02-05 08:41:00,29.8,22.6,29.91,NE,45,6.9,6.9,74,0.00,,,0.00,WeatherDisplay:10.36,2013-02-05 14:41:00,
2013-02-05 08:46:00,30.2,22.9,29.91,NE,44,8.1,8.1,74,0.00,,,0.00,WeatherDisplay:10.36,2013-02-05 14:46:00,
2013-02-05 08:51:00,30.4,23.1,29.91,NE,46,5.8,5.8,74,0.00,,,0.00,WeatherDisplay:10.36,2013-02-05 14:51:00,
2013-02-05 08:56:00,30.9,23.6,29.91,East,88,7.4,7.4,74,0.00,,,0.00,WeatherDisplay:10.36,2013-02-05 14:56:00,
2013-02-05 09:01:00,31.6,24.3,29.91,NE,45,4.9,4.9,74,0.00,,,0.00,WeatherDisplay:10.36,2013-02-05 15:01:00,
2013-02-05 09:06:00,32.2,24.8,29.91,NE,46,6.7,6.7,74,0.00,,,0.00,WeatherDisplay:10.36,2013-02-05 15:06:00,
2013-02-05 09:11:00,32.5,25.2,29.91,NE,46,6.7,6.7,74,0.00,,,0.00,WeatherDisplay:10.36,2013-02-05 15:11:00,
2013-02-05 09:16:00,32.7,25.3,29.91,NE,45,4.9,4.9,74,0.00,,,0.00,WeatherDisplay:10.36,2013-02-05 15:16:00,
2013-02-05 09:21:00,33.4,25.7,29.91,ENE,63,5.8,5.8,73,0.00,,,0.00,WeatherDisplay:10.36,2013-02-05 15:21:00,
2013-02-05 09:26:00,33.8,26.1,29.91,NE,48,8.3,8.3,73,0.00,,,0.00,WeatherDisplay:10.36,2013-02-05 15:26:00,
2013-02-05 09:31:00,34.2,26.1,29.91,NE,49,8.1,8.1,72,0.00,,,0.00,WeatherDisplay:10.36,2013-02-05 15:31:00,
2013-02-05 09:36:00,34.3,25.6,29.91,NE,50,6.9,6.9,70,0.00,,,0.00,WeatherDisplay:10.36,2013-02-05 15:36:00,
2013-02-05 09:41:00,34.5,25.0,29.91,NE,47,8.3,8.3,68,0.00,,,0.00,WeatherDisplay:10.36,2013-02-05 15:41:00,
2013-02-05 09:46:00,35.1,24.8,29.91,NE,49,9.2,9.2,66,0.00,,,0.00,WeatherDisplay:10.36,2013-02-05 15:46:00,
2013-02-05 09:51:00,35.4,25.2,29.91,NE,54,9.2,9.2,66,0.00,,,0.00,WeatherDisplay:10.36,2013-02-05 15:51:00,
2013-02-05 09:56:00,35.8,24.8,29.91,NE,48,8.1,8.1,64,0.00,,,0.00,WeatherDisplay:10.36,2013-02-05 15:56:00,
2013-02-05 10:01:00,36.1,25.1,29.91,NE,47,7.4,7.4,64,0.00,,,0.00,WeatherDisplay:10.36,2013-02-05 16:01:00,
2013-02-05 10:06:00,36.9,25.0,29.91,NE,47,9.2,9.2,62,0.00,,,0.00,WeatherDisplay:10.36,2013-02-05 16:06:00,
2013-02-05 10:11:00,37.2,24.2,29.91,NE,49,8.1,8.1,59,0.00,,,0.00,WeatherDisplay:10.36,2013-02-05 16:11:00,
2013-02-05 10:16:00,37.6,24.5,29.91,NE,43,8.7,8.7,59,0.00,,,0.00,WeatherDisplay:10.36,2013-02-05 16:16:00,
2013-02-05 10:21:00,38.3,24.4,29.88,NE,48,11.5,11.5,57,0.00,,,0.00,WeatherDisplay:10.36,2013-02-05 16:21:00,
2013-02-05 10:26:00,38.8,24.0,29.88,NE,52,8.1,8.1,55,0.00,,,0.00,WeatherDisplay:10.36,2013-02-05 16:26:00,
2013-02-05 10:31:00,39.4,24.1,29.88,NE,49,6.9,6.9,54,0.00,,,0.00,WeatherDisplay:10.36,2013-02-05 16:31:00,
2013-02-05 10:36:00,39.6,23.8,29.88,NE,47,10.4,10.4,53,0.00,,,0.00,WeatherDisplay:10.36,2013-02-05 16:36:00,
2013-02-05 10:41:00,39.7,23.5,29.88,West,259,9.2,9.2,52,0.00,,,0.00,WeatherDisplay:10.36,2013-02-05 16:41:00,
2013-02-05 10:46:00,39.9,23.7,29.88,NE,44,7.8,7.8,52,0.00,,,0.00,WeatherDisplay:10.36,2013-02-05 16:46:00,
2013-02-05 10:51:00,40.3,23.6,29.88,NE,48,8.3,8.3,51,0.00,,,0.00,WeatherDisplay:10.36,2013-02-05 16:51:00,
2013-02-05 10:56:00,41.0,24.2,29.88,NE,52,10.4,10.4,51,0.00,,,0.00,WeatherDisplay:10.36,2013-02-05 16:56:00,
2013-02-05 11:01:00,41.2,24.4,29.88,NE,48,10.5,10.5,51,0.00,,,0.00,WeatherDisplay:10.36,2013-02-05 17:01:00,
2013-02-05 11:06:00,41.5,23.8,29.88,NE,45,10.4,10.4,49,0.00,,,0.00,WeatherDisplay:10.36,2013-02-05 17:06:00,
2013-02-05 11:11:00,41.7,23.9,29.88,NE,43,11.5,11.5,49,0.00,,,0.00,WeatherDisplay:10.36,2013-02-05 17:11:00,
2013-02-05 11:16:00,42.1,24.3,29.88,NE,51,9.6,9.6,49,0.00,,,0.00,WeatherDisplay:10.36,2013-02-05 17:16:00,
2013-02-05 11:21:00,42.3,24.4,29.88,NE,47,7.8,7.8,49,0.00,,,0.00,WeatherDisplay:10.36,2013-02-05 17:21:00,
2013-02-05 11:26:00,42.6,24.3,29.88,ENE,73,7.8,7.8,48,0.00,,,0.00,WeatherDisplay:10.36,2013-02-05 17:26:00,
2013-02-05 11:31:00,43.0,24.6,29.88,NE,45,11.6,11.6,48,0.00,,,0.00,WeatherDisplay:10.36,2013-02-05 17:31:00,
2013-02-05 11:36:00,43.2,24.8,29.88,ENE,66,10.9,10.9,48,0.00,,,0.00,WeatherDisplay:10.36,2013-02-05 17:36:00,
2013-02-05 11:41:00,43.5,25.1,29.88,NE,47,9.2,9.2,48,0.00,,,0.00,WeatherDisplay:10.36,2013-02-05 17:41:00,
2013-02-05 11:46:00,43.7,24.8,29.85,ENE,60,8.7,8.7,47,0.00,,,0.00,WeatherDisplay:10.36,2013-02-05 17:46:00,
2013-02-05 11:51:00,44.1,25.1,29.85,NE,47,7.4,7.4,47,0.00,,,0.00,WeatherDisplay:10.36,2013-02-05 17:51:00,
2013-02-05 11:56:00,44.2,25.3,29.85,SE,132,9.2,9.2,47,0.00,,,0.00,WeatherDisplay:10.36,2013-02-05 17:56:00,
2013-02-05 12:01:00,44.6,25.6,29.85,West,264,8.3,8.3,47,0.00,,,0.00,WeatherDisplay:10.36,2013-02-05 18:01:00,
2013-02-05 12:06:00,45.0,25.4,29.85,NE,42,10.4,10.4,46,0.00,,,0.00,WeatherDisplay:10.36,2013-02-05 18:06:00,
2013-02-05 12:11:00,45.1,25.6,29.85,NE,47,6.9,6.9,46,0.00,,,0.00,WeatherDisplay:10.36,2013-02-05 18:11:00,
2013-02-05 12:16:00,45.5,25.9,29.85,NE,45,6.9,6.9,46,0.00,,,0.00,WeatherDisplay:10.36,2013-02-05 18:16:00,
2013-02-05 12:21:00,46.0,26.4,29.85,SSE,156,9.2,9.2,46,0.00,,,0.00,WeatherDisplay:10.36,2013-02-05 18:21:00,
2013-02-05 12:26:00,46.2,26.0,29.85,East,96,9.2,9.2,45,0.00,,,0.00,WeatherDisplay:10.36,2013-02-05 18:26:00,
2013-02-05 12:31:00,46.2,24.9,29.85,NE,45,8.7,8.7,43,0.00,,,0.00,WeatherDisplay:10.36,2013-02-05 18:31:00,
2013-02-05 12:36:00,46.2,25.5,29.85,NE,49,9.6,9.6,44,0.00,,,0.00,WeatherDisplay:10.36,2013-02-05 18:36:00,
2013-02-05 12:41:00,46.4,25.6,29.85,NE,47,8.3,8.3,44,0.00,,,0.00,WeatherDisplay:10.36,2013-02-05 18:41:00,
2013-02-05 12:46:00,46.8,26.0,29.85,NE,47,6.9,6.9,44,0.00,,,0.00,WeatherDisplay:10.36,2013-02-05 18:46:00,
2013-02-05 12:51:00,47.1,26.3,29.85,NE,43,7.8,7.8,44,0.00,,,0.00,WeatherDisplay:10.36,2013-02-05 18:51:00,
2013-02-05 12:56:00,47.3,25.9,29.85,NE,54,8.1,8.1,43,0.00,,,0.00,WeatherDisplay:10.36,2013-02-05 18:56:00,
2013-02-05 13:01:00,47.5,26.1,29.85,ENE,57,8.3,8.3,43,0.00,,,0.00,WeatherDisplay:10.36,2013-02-05 19:01:00,
2013-02-05 13:06:00,47.7,26.2,29.85,NE,53,7.4,7.4,43,0.00,,,0.00,WeatherDisplay:10.36,2013-02-05 19:06:00,
2013-02-05 13:11:00,48.0,26.6,29.85,NE,47,4.9,4.9,43,0.00,,,0.00,WeatherDisplay:10.36,2013-02-05 19:11:00,
2013-02-05 13:16:00,48.4,26.9,29.85,NE,52,6.9,6.9,43,0.00,,,0.00,WeatherDisplay:10.36,2013-02-05 19:16:00,
2013-02-05 13:21:00,48.7,26.6,29.85,NE,47,5.8,5.8,42,0.00,,,0.00,WeatherDisplay:10.36,2013-02-05 19:21:00,
2013-02-05 13:26:00,48.9,26.8,29.85,NE,52,7.8,7.8,42,0.00,,,0.00,WeatherDisplay:10.36,2013-02-05 19:26:00,
2013-02-05 13:31:00,49.1,25.8,29.85,ENE,58,7.4,7.4,40,0.00,,,0.00,WeatherDisplay:10.36,2013-02-05 19:31:00,
2013-02-05 13:36:00,49.3,26.0,29.85,NE,49,8.1,8.1,40,0.00,,,0.00,WeatherDisplay:10.36,2013-02-05 19:36:00,
2013-02-05 13:41:00,49.5,26.1,29.85,NE,48,7.4,7.4,40,0.00,,,0.00,WeatherDisplay:10.36,2013-02-05 19:41:00,
2013-02-05 13:46:00,49.5,25.5,29.85,ENE,71,7.4,7.4,39,0.00,,,0.00,WeatherDisplay:10.36,2013-02-05 19:46:00,
2013-02-05 13:51:00,49.5,25.5,29.88,NE,51,10.9,10.9,39,0.00,,,0.00,WeatherDisplay:10.36,2013-02-05 19:51:00,
2013-02-05 13:56:00,49.5,25.5,29.88,ESE,115,6.3,6.3,39,0.00,,,0.00,WeatherDisplay:10.36,2013-02-05 19:56:00,
2013-02-05 14:01:00,49.5,25.5,29.85,ENE,63,8.3,8.3,39,0.00,,,0.00,WeatherDisplay:10.36,2013-02-05 20:01:00,
2013-02-05 14:06:00,49.6,25.7,29.85,NE,51,9.2,9.2,39,0.00,,,0.00,WeatherDisplay:10.36,2013-02-05 20:06:00,
2013-02-05 14:11:00,49.6,25.7,29.85,NE,50,10.4,10.4,39,0.00,,,0.00,WeatherDisplay:10.36,2013-02-05 20:11:00,
2013-02-05 14:16:00,49.6,25.7,29.88,ESE,103,10.5,10.5,39,0.00,,,0.00,WeatherDisplay:10.36,2013-02-05 20:16:00,
2013-02-05 14:21:00,49.8,25.8,29.88,NE,45,6.9,6.9,39,0.00,,,0.00,WeatherDisplay:10.36,2013-02-05 20:21:00,
2013-02-05 14:26:00,49.8,25.8,29.88,NE,52,9.2,9.2,39,0.00,,,0.00,WeatherDisplay:10.36,2013-02-05 20:26:00,
2013-02-05 14:31:00,50.0,26.0,29.88,NE,48,9.6,9.6,39,0.00,,,0.00,WeatherDisplay:10.36,2013-02-05 20:31:00,
2013-02-05 14:36:00,50.0,26.0,29.88,NE,52,6.9,6.9,39,0.00,,,0.00,WeatherDisplay:10.36,2013-02-05 20:36:00,
2013-02-05 14:41:00,50.2,26.1,29.88,NE,44,4.6,4.6,39,0.00,,,0.00,WeatherDisplay:10.36,2013-02-05 20:41:00,
2013-02-05 14:46:00,50.2,26.1,29.88,NE,48,5.8,5.8,39,0.00,,,0.00,WeatherDisplay:10.36,2013-02-05 20:46:00,
2013-02-05 14:51:00,50.2,26.1,29.88,NE,45,7.8,7.8,39,0.00,,,0.00,WeatherDisplay:10.36,2013-02-05 20:51:00,
2013-02-05 14:56:00,50.2,25.5,29.88,NE,45,9.2,9.2,38,0.00,,,0.00,WeatherDisplay:10.36,2013-02-05 20:56:00,
2013-02-05 15:01:00,50.2,25.5,29.88,NE,54,8.1,8.1,38,0.00,,,0.00,WeatherDisplay:10.36,2013-02-05 21:01:00,
2013-02-05 15:06:00,50.2,25.5,29.88,NE,54,8.3,8.3,38,0.00,,,0.00,WeatherDisplay:10.36,2013-02-05 21:06:00,
2013-02-05 15:11:00,50.2,25.5,29.88,NE,50,7.4,7.4,38,0.00,,,0.00,WeatherDisplay:10.36,2013-02-05 21:11:00,
2013-02-05 15:16:00,50.2,25.5,29.88,NE,54,7.8,7.8,38,0.00,,,0.00,WeatherDisplay:10.36,2013-02-05 21:16:00,
2013-02-05 15:21:00,50.2,25.5,29.88,ESE,112,4.9,4.9,38,0.00,,,0.00,WeatherDisplay:10.36,2013-02-05 21:21:00,
2013-02-05 15:26:00,50.2,25.5,29.88,ENE,57,5.8,0.0,38,0.00,,,0.00,WeatherDisplay:10.36,2013-02-05 21:26:00,
2013-02-05 15:31:00,50.2,25.5,29.88,NE,47,10.9,10.9,38,0.00,,,0.00,WeatherDisplay:10.36,2013-02-05 21:31:00,
2013-02-05 15:36:00,50.0,25.4,29.91,NE,54,7.4,7.4,38,0.00,,,0.00,WeatherDisplay:10.36,2013-02-05 21:36:00,
2013-02-05 15:42:00,49.8,25.2,29.91,NE,53,5.8,5.8,38,0.00,,,0.00,WeatherDisplay:10.36,2013-02-05 21:42:00,
2013-02-05 15:47:00,49.8,25.2,29.91,East,82,8.1,8.1,38,0.00,,,0.00,WeatherDisplay:10.36,2013-02-05 21:47:00,
2013-02-05 15:52:00,49.6,25.0,29.91,SE,129,10.4,10.4,38,0.00,,,0.00,WeatherDisplay:10.36,2013-02-05 21:52:00,
2013-02-05 15:57:00,49.5,24.9,29.91,ENE,68,8.3,8.3,38,0.00,,,0.00,WeatherDisplay:10.36,2013-02-05 21:57:00,
2013-02-05 16:02:00,49.3,24.7,29.91,NE,50,7.4,7.4,38,0.00,,,0.00,WeatherDisplay:10.36,2013-02-05 22:02:00,
2013-02-05 16:07:00,49.1,25.2,29.91,NE,47,5.8,5.8,39,0.00,,,0.00,WeatherDisplay:10.36,2013-02-05 22:07:00,
2013-02-05 16:12:00,48.9,25.0,29.91,NE,48,6.9,6.9,39,0.00,,,0.00,WeatherDisplay:10.36,2013-02-05 22:12:00,
2013-02-05 16:17:00,48.7,24.9,29.91,East,98,6.7,6.7,39,0.00,,,0.00,WeatherDisplay:10.36,2013-02-05 22:17:00,
2013-02-05 16:22:00,48.6,24.7,29.91,NE,49,5.8,5.8,39,0.00,,,0.00,WeatherDisplay:10.36,2013-02-05 22:22:00,
2013-02-05 16:27:00,48.4,24.5,29.91,NE,46,7.4,7.4,39,0.00,,,0.00,WeatherDisplay:10.36,2013-02-05 22:27:00,
2013-02-05 16:32:00,48.2,24.4,29.94,NE,47,4.6,4.6,39,0.00,,,0.00,WeatherDisplay:10.36,2013-02-05 22:32:00,
2013-02-05 16:37:00,47.8,24.7,29.94,NE,52,4.6,4.6,40,0.00,,,0.00,WeatherDisplay:10.36,2013-02-05 22:37:00,
2013-02-05 16:42:00,47.5,24.9,29.94,NE,44,3.6,0.0,41,0.00,,,0.00,WeatherDisplay:10.36,2013-02-05 22:42:00,
2013-02-05 16:47:00,47.1,25.2,29.94,NE,44,6.3,6.3,42,0.00,,,0.00,WeatherDisplay:10.36,2013-02-05 22:47:00,
2013-02-05 16:52:00,46.8,24.9,29.94,NE,45,4.0,4.0,42,0.00,,,0.00,WeatherDisplay:10.36,2013-02-05 22:52:00,
2013-02-05 16:57:00,46.4,25.1,29.94,North,351,4.6,4.6,43,0.00,,,0.00,WeatherDisplay:10.36,2013-02-05 22:57:00,
2013-02-05 17:02:00,46.2,24.9,29.94,NE,46,6.7,0.0,43,0.00,,,0.00,WeatherDisplay:10.36,2013-02-05 23:02:00,
2013-02-05 17:07:00,45.9,25.2,29.94,NE,47,6.9,6.9,44,0.00,,,0.00,WeatherDisplay:10.36,2013-02-05 23:07:00,
2013-02-05 17:12:00,45.5,25.4,29.94,NE,49,4.5,0.0,45,0.00,,,0.00,WeatherDisplay:10.36,2013-02-05 23:12:00,
2013-02-05 17:17:00,45.1,25.6,29.94,NE,48,5.8,5.8,46,0.00,,,0.00,WeatherDisplay:10.36,2013-02-05 23:17:00,
2013-02-05 17:22:00,44.8,25.8,29.94,West,266,4.6,4.6,47,0.00,,,0.00,WeatherDisplay:10.36,2013-02-05 23:22:00,
2013-02-05 17:27:00,44.6,25.6,29.94,North,351,3.6,3.6,47,0.00,,,0.00,WeatherDisplay:10.36,2013-02-05 23:27:00,
2013-02-05 17:32:00,44.2,25.3,30.76,North,351,0.0,0.0,47,0.00,,,0.00,WeatherDisplay:10.36,2013-02-05 23:32:00,
2013-02-05 17:37:00,43.9,24.9,30.76,North,351,0.0,0.0,47,0.00,,,0.00,WeatherDisplay:10.36,2013-02-05 23:37:00,
2013-02-05 17:42:00,43.5,25.1,30.76,North,351,0.0,0.0,48,0.00,,,0.00,WeatherDisplay:10.36,2013-02-05 23:42:00,
2013-02-05 17:47:00,43.2,24.8,30.76,North,351,0.0,0.0,48,0.00,,,0.00,WeatherDisplay:10.36,2013-02-05 23:47:00,
2013-02-05 17:52:00,42.8,24.4,30.76,North,351,0.0,0.0,48,0.00,,,0.00,WeatherDisplay:10.36,2013-02-05 23:52:00,
2013-02-05 17:57:00,42.4,24.6,30.76,NE,46,0.0,0.0,49,0.00,,,0.00,WeatherDisplay:10.36,2013-02-05 23:57:00,
2013-02-05 18:02:00,42.3,24.4,29.97,NE,47,2.3,0.0,49,0.00,,,0.00,WeatherDisplay:10.36,2013-02-06 00:02:00,
2013-02-05 18:07:00,42.1,24.8,29.97,NE,46,0.0,0.0,50,0.00,,,0.00,WeatherDisplay:10.36,2013-02-06 00:07:00,
2013-02-05 18:12:00,41.7,24.4,29.97,North,351,0.0,0.0,50,0.00,,,0.00,WeatherDisplay:10.36,2013-02-06 00:12:00,
2013-02-05 18:17:00,41.5,24.7,30.79,NE,49,2.3,0.0,51,0.00,,,0.00,WeatherDisplay:10.36,2013-02-06 00:17:00,
2013-02-05 18:22:00,41.5,24.7,30.79,NE,50,6.9,0.0,51,0.00,,,0.00,WeatherDisplay:10.36,2013-02-06 00:22:00,
2013-02-05 18:27:00,41.4,25.0,30.79,North,351,6.3,0.0,52,0.00,,,0.00,WeatherDisplay:10.36,2013-02-06 00:27:00,
2013-02-05 18:32:00,41.2,24.9,29.97,NE,49,2.3,0.0,52,0.00,,,0.00,WeatherDisplay:10.36,2013-02-06 00:32:00,
2013-02-05 18:37:00,41.0,24.7,29.97,NE,53,4.9,4.9,52,0.00,,,0.00,WeatherDisplay:10.36,2013-02-06 00:37:00,
2013-02-05 18:42:00,41.0,24.7,29.97,NE,47,6.7,0.0,52,0.00,,,0.00,WeatherDisplay:10.36,2013-02-06 00:42:00,
2013-02-05 18:47:00,40.8,24.5,30.00,North,351,4.6,4.6,52,0.00,,,0.00,WeatherDisplay:10.36,2013-02-06 00:47:00,
2013-02-05 18:52:00,40.6,24.4,30.00,NE,49,3.5,3.5,52,0.00,,,0.00,WeatherDisplay:10.36,2013-02-06 00:52:00,
2013-02-05 18:57:00,40.5,24.7,30.00,East,79,0.0,0.0,53,0.00,,,0.00,WeatherDisplay:10.36,2013-02-06 00:57:00,
2013-02-05 19:02:00,40.5,24.7,30.00,NE,50,0.0,0.0,53,0.00,,,0.00,WeatherDisplay:10.36,2013-02-06 01:02:00,
2013-02-05 19:07:00,40.5,24.7,30.00,NE,50,0.0,0.0,53,0.00,,,0.00,WeatherDisplay:10.36,2013-02-06 01:07:00,
2013-02-05 19:12:00,40.3,24.9,30.00,NNE,30,0.0,0.0,54,0.00,,,0.00,WeatherDisplay:10.36,2013-02-06 01:12:00,
2013-02-05 19:17:00,40.3,25.4,30.00,NE,48,4.6,0.0,55,0.00,,,0.00,WeatherDisplay:10.36,2013-02-06 01:17:00,
2013-02-05 19:22:00,40.5,26.0,30.00,North,351,4.9,4.9,56,0.00,,,0.00,WeatherDisplay:10.36,2013-02-06 01:22:00,
2013-02-05 19:28:00,40.5,26.4,30.00,NNE,28,3.5,0.0,57,0.00,,,0.00,WeatherDisplay:10.36,2013-02-06 01:28:00,
2013-02-05 19:33:00,40.3,26.7,30.00,NNE,28,0.0,0.0,58,0.00,,,0.00,WeatherDisplay:10.36,2013-02-06 01:33:00,
2013-02-05 19:39:00,39.9,26.3,30.00,NNE,28,0.0,0.0,58,0.00,,,0.00,WeatherDisplay:10.36,2013-02-06 01:39:00,
2013-02-05 19:44:00,39.7,26.6,30.00,NNE,29,0.0,0.0,59,0.00,,,0.00,WeatherDisplay:10.36,2013-02-06 01:44:00,
2013-02-05 19:49:00,39.7,26.6,30.03,NNE,28,0.0,0.0,59,0.00,,,0.00,WeatherDisplay:10.36,2013-02-06 01:49:00,
2013-02-05 19:54:00,39.4,26.2,30.03,NNE,28,0.0,0.0,59,0.00,,,0.00,WeatherDisplay:10.36,2013-02-06 01:54:00,
2013-02-05 19:59:00,39.2,26.1,30.03,NE,46,3.5,0.0,59,0.00,,,0.00,WeatherDisplay:10.36,2013-02-06 01:59:00,
2013-02-05 20:04:00,38.7,25.6,30.03,NE,45,0.0,0.0,59,0.00,,,0.00,WeatherDisplay:10.36,2013-02-06 02:04:00,
2013-02-05 20:09:00,38.5,25.4,30.03,NE,47,0.0,0.0,59,0.00,,,0.00,WeatherDisplay:10.36,2013-02-06 02:09:00,
2013-02-05 20:14:00,38.3,25.2,30.03,NE,48,0.0,0.0,59,0.00,,,0.00,WeatherDisplay:10.36,2013-02-06 02:14:00,
2013-02-05 20:19:00,38.1,25.0,30.03,NE,48,0.0,0.0,59,0.00,,,0.00,WeatherDisplay:10.36,2013-02-06 02:19:00,
2013-02-05 20:24:00,37.8,24.7,30.03,NE,50,0.0,0.0,59,0.00,,,0.00,WeatherDisplay:10.36,2013-02-06 02:24:00,
2013-02-05 20:29:00,37.6,24.5,30.03,NW,316,0.0,0.0,59,0.00,,,0.00,WeatherDisplay:10.36,2013-02-06 02:29:00,
2013-02-05 20:34:00,37.6,24.5,30.91,NE,47,0.0,0.0,59,0.00,,,0.00,WeatherDisplay:10.36,2013-02-06 02:34:00,
2013-02-05 20:39:00,37.4,24.4,30.91,NE,50,2.7,0.0,59,0.00,,,0.00,WeatherDisplay:10.36,2013-02-06 02:39:00,
2013-02-05 20:44:00,37.2,24.2,30.91,North,351,0.0,0.0,59,0.00,,,0.00,WeatherDisplay:10.36,2013-02-06 02:44:00,
2013-02-05 20:49:00,37.0,24.4,30.85,North,351,0.0,0.0,60,0.00,,,0.00,WeatherDisplay:10.36,2013-02-06 02:49:00,
2013-02-05 20:54:00,37.0,24.4,30.85,North,351,0.0,0.0,60,0.00,,,0.00,WeatherDisplay:10.36,2013-02-06 02:54:00,
2013-02-05 20:59:00,36.9,24.3,30.85,North,351,0.0,0.0,60,0.00,,,0.00,WeatherDisplay:10.36,2013-02-06 02:59:00,
2013-02-05 21:04:00,36.9,24.3,30.88,North,351,0.0,0.0,60,0.00,,,0.00,WeatherDisplay:10.36,2013-02-06 03:04:00,
2013-02-05 21:09:00,36.7,24.1,30.88,North,351,0.0,0.0,60,0.00,,,0.00,WeatherDisplay:10.36,2013-02-06 03:09:00,
2013-02-05 21:14:00,36.5,23.9,30.88,North,351,0.0,0.0,60,0.00,,,0.00,WeatherDisplay:10.36,2013-02-06 03:14:00,
2013-02-05 21:19:00,36.3,23.8,30.85,North,351,0.0,0.0,60,0.00,,,0.00,WeatherDisplay:10.36,2013-02-06 03:19:00,
2013-02-05 21:25:00,36.3,24.1,30.85,North,351,0.0,0.0,61,0.00,,,0.00,WeatherDisplay:10.36,2013-02-06 03:25:00,
2013-02-05 21:30:00,36.1,24.0,30.85,North,351,0.0,0.0,61,0.00,,,0.00,WeatherDisplay:10.36,2013-02-06 03:30:00,
2013-02-05 21:35:00,36.0,23.8,30.85,North,351,0.0,0.0,61,0.00,,,0.00,WeatherDisplay:10.36,2013-02-06 03:35:00,
2013-02-05 21:40:00,36.0,23.8,30.85,North,351,0.0,0.0,61,0.00,,,0.00,WeatherDisplay:10.36,2013-02-06 03:40:00,
2013-02-05 21:45:00,35.8,23.6,30.85,North,351,0.0,0.0,61,0.00,,,0.00,WeatherDisplay:10.36,2013-02-06 03:45:00,
2013-02-05 21:50:00,35.6,23.5,30.88,North,351,0.0,0.0,61,0.00,,,0.00,WeatherDisplay:10.36,2013-02-06 03:50:00,
2013-02-05 21:55:00,35.6,23.5,30.88,North,351,0.0,0.0,61,0.00,,,0.00,WeatherDisplay:10.36,2013-02-06 03:55:00,
2013-02-05 22:00:00,35.4,23.7,30.88,NE,46,0.0,0.0,62,0.00,,,0.00,WeatherDisplay:10.36,2013-02-06 04:00:00,
2013-02-05 22:05:00,35.4,23.7,30.06,North,351,0.0,0.0,62,0.00,,,0.00,WeatherDisplay:10.36,2013-02-06 04:05:00,
2013-02-05 22:10:00,35.4,23.7,30.06,North,351,0.0,0.0,62,0.00,,,0.00,WeatherDisplay:10.36,2013-02-06 04:10:00,
2013-02-05 22:15:00,35.2,23.5,30.06,NE,47,0.0,0.0,62,0.00,,,0.00,WeatherDisplay:10.36,2013-02-06 04:15:00,
2013-02-05 22:20:00,35.2,23.9,30.08,NE,48,0.0,0.0,63,0.00,,,0.00,WeatherDisplay:10.36,2013-02-06 04:20:00,
2013-02-05 22:25:00,35.1,23.7,30.08,NE,47,0.0,0.0,63,0.00,,,0.00,WeatherDisplay:10.36,2013-02-06 04:25:00,
2013-02-05 22:30:00,34.9,23.6,30.08,NE,49,0.0,0.0,63,0.00,,,0.00,WeatherDisplay:10.36,2013-02-06 04:30:00,
2013-02-05 22:35:00,34.7,23.4,30.08,NE,47,0.0,0.0,63,0.00,,,0.00,WeatherDisplay:10.36,2013-02-06 04:35:00,
2013-02-05 22:40:00,34.7,23.8,30.08,NE,45,0.0,0.0,64,0.00,,,0.00,WeatherDisplay:10.36,2013-02-06 04:40:00,
2013-02-05 22:45:00,34.5,23.6,30.08,NE,44,0.0,0.0,64,0.00,,,0.00,WeatherDisplay:10.36,2013-02-06 04:45:00,
2013-02-05 22:51:00,34.3,23.8,30.08,NE,46,0.0,0.0,65,0.00,,,0.00,WeatherDisplay:10.36,2013-02-06 04:51:00,
2013-02-05 22:56:00,34.2,23.6,30.08,NE,46,0.0,0.0,65,0.00,,,0.00,WeatherDisplay:10.36,2013-02-06 04:56:00,
2013-02-05 23:00:00,34.2,23.6,30.08,NE,44,0.0,0.0,65,0.00,,,0.00,WeatherDisplay:10.36,2013-02-06 05:00:00,
2013-02-05 23:01:00,34.2,23.6,30.08,NE,45,0.0,0.0,65,0.00,,,0.00,WeatherDisplay:10.36,2013-02-06 05:01:00,
2013-02-05 23:06:00,34.2,23.6,30.08,NE,45,0.0,0.0,65,0.00,,,0.00,WeatherDisplay:10.36,2013-02-06 05:06:00,
2013-02-05 23:11:00,34.0,23.4,30.08,ENE,58,4.0,4.0,65,0.00,,,0.00,WeatherDisplay:10.36,2013-02-06 05:11:00,
2013-02-05 23:16:00,33.8,23.6,30.08,NE,47,4.6,0.0,66,0.00,,,0.00,WeatherDisplay:10.36,2013-02-06 05:16:00,
2013-02-05 23:21:00,33.8,23.6,30.08,NE,47,0.0,0.0,66,0.00,,,0.00,WeatherDisplay:10.36,2013-02-06 05:21:00,
2013-02-05 23:26:00,33.6,23.5,30.08,NE,47,0.0,0.0,66,0.00,,,0.00,WeatherDisplay:10.36,2013-02-06 05:26:00,
2013-02-05 23:31:00,33.6,23.5,30.08,NE,48,3.6,3.6,66,0.00,,,0.00,WeatherDisplay:10.36,2013-02-06 05:31:00,
2013-02-05 23:36:00,33.4,23.3,30.08,NE,51,4.0,4.0,66,0.00,,,0.00,WeatherDisplay:10.36,2013-02-06 05:36:00,
2013-02-05 23:41:00,33.4,23.3,30.08,NE,48,4.0,4.0,66,0.00,,,0.00,WeatherDisplay:10.36,2013-02-06 05:41:00,
2013-02-05 23:46:00,33.3,23.5,30.11,NE,47,3.5,3.5,67,0.00,,,0.00,WeatherDisplay:10.36,2013-02-06 05:46:00,
2013-02-05 23:51:00,33.3,23.5,30.11,NE,46,2.7,0.0,67,0.00,,,0.00,WeatherDisplay:10.36,2013-02-06 05:51:00,
2013-02-05 23:56:00,33.3,23.5,30.11,NE,45,0.0,0.0,67,0.00,,,0.00,WeatherDisplay:10.36,2013-02-06 05:56:00,
2013-02-05 23:58:00,33.3,23.5,30.11,NE,46,0.0,0.0,67,0.00,,,0.00,WeatherDisplay:10.36,2013-02-06 05:58:00,